Time;durP1;ratioP1;P1;durP2;ratioP2;P2;SDS_P1;SDS_P2;PMS_P1;PMS_P2;Temp;Humidity;BMP_temperature;BMP_pressure;BME280_temperature;BME280_humidity;BME280_pressure;Samples;Min_cycle;Max_cycle;Signal;HPM_P1;HPM_P2
2021/10/03 00:00:59;;;;;;;0.70;0.50;;;19.10;99.90;;;;;;5024274;28;20422;-70
2021/10/03 00:03:27;;;;;;;0.90;0.77;;;19.10;99.90;;;;;;5029959;28;20453;-71
2021/10/03 00:05:55;;;;;;;1.13;0.80;;;19.10;99.90;;;;;;5030959;28;20433;-69
2021/10/03 00:08:21;;;;;;;0.83;0.60;;;19.10;99.90;;;;;;5022542;28;20430;-68
2021/10/03 00:10:49;;;;;;;0.80;0.80;;;19.10;99.90;;;;;;5020736;28;20426;-68
2021/10/03 00:13:15;;;;;;;1.97;0.73;;;19.20;99.90;;;;;;5031718;28;20453;-68
2021/10/03 00:15:41;;;;;;;0.80;0.70;;;19.10;99.90;;;;;;5031241;28;20425;-68
2021/10/03 00:18:08;;;;;;;0.70;0.50;;;19.10;99.90;;;;;;5026552;28;20510;-69
2021/10/03 00:20:36;;;;;;;0.80;0.70;;;19.10;99.90;;;;;;5016627;28;20195;-71
2021/10/03 00:23:02;;;;;;;1.07;0.70;;;19.10;99.90;;;;;;5031718;28;20811;-69
2021/10/03 00:25:28;;;;;;;1.17;0.93;;;19.10;99.90;;;;;;5031400;28;20430;-70
2021/10/03 00:27:55;;;;;;;0.80;0.70;;;19.20;99.90;;;;;;5035239;28;20182;-68
2021/10/03 00:30:22;;;;;;;0.87;0.73;;;19.20;99.90;;;;;;5032944;28;20414;-67
2021/10/03 00:32:48;;;;;;;2.50;1.00;;;19.20;99.90;;;;;;5033771;28;20469;-68
2021/10/03 00:35:15;;;;;;;0.87;0.67;;;19.10;99.90;;;;;;5035315;28;20398;-67
2021/10/03 00:37:41;;;;;;;1.00;0.70;;;19.20;99.90;;;;;;5034846;28;20430;-70
2021/10/03 00:40:08;;;;;;;1.90;0.60;;;19.20;99.90;;;;;;5034280;28;20430;-69
2021/10/03 00:42:34;;;;;;;0.80;0.60;;;19.20;99.90;;;;;;5034195;28;20442;-69
2021/10/03 00:44:59;;;;;;;0.83;0.70;;;19.20;99.90;;;;;;5033187;28;20420;-70
2021/10/03 00:47:25;;;;;;;0.70;0.50;;;19.20;99.90;;;;;;5034901;28;20430;-70
2021/10/03 00:49:50;;;;;;;0.77;0.60;;;19.20;99.90;;;;;;5030099;28;20167;-70
2021/10/03 00:52:16;;;;;;;1.30;0.70;;;19.20;99.90;;;;;;5033684;28;20199;-69
2021/10/03 00:54:42;;;;;;;0.80;0.70;;;19.20;99.90;;;;;;5017343;28;20239;-68
2021/10/03 00:57:08;;;;;;;0.70;0.50;;;19.20;99.90;;;;;;5016354;28;20238;-70
2021/10/03 00:59:34;;;;;;;0.73;0.57;;;19.10;99.90;;;;;;5015526;28;20172;-69
2021/10/03 01:02:00;;;;;;;2.20;1.70;;;19.10;99.90;;;;;;5028876;28;20457;-69
2021/10/03 01:04:26;;;;;;;0.70;0.50;;;19.10;99.90;;;;;;5016786;28;20435;-69
2021/10/03 01:06:52;;;;;;;0.70;0.60;;;19.10;99.90;;;;;;5030436;28;20422;-69
2021/10/03 01:09:19;;;;;;;0.90;0.80;;;19.00;99.90;;;;;;5034443;28;20202;-68
2021/10/03 01:11:45;;;;;;;0.80;0.70;;;19.00;99.90;;;;;;5023456;28;20423;-69
2021/10/03 01:14:10;;;;;;;0.90;0.80;;;18.90;99.90;;;;;;5031914;28;20465;-68
2021/10/03 01:16:36;;;;;;;0.90;0.80;;;19.00;99.90;;;;;;5034620;28;20489;-70
2021/10/03 01:19:02;;;;;;;1.23;0.77;;;19.00;99.90;;;;;;5025875;28;20219;-69
2021/10/03 01:21:27;;;;;;;1.10;0.83;;;18.90;99.90;;;;;;5024044;28;20180;-69
2021/10/03 01:23:57;;;;;;;0.80;0.80;;;18.90;99.90;;;;;;5034232;28;20441;-70
2021/10/03 01:26:24;;;;;;;0.90;0.90;;;18.90;99.90;;;;;;5034765;28;20668;-69
2021/10/03 01:28:53;;;;;;;0.70;0.50;;;18.80;99.90;;;;;;5034011;28;20425;-68
2021/10/03 01:31:19;;;;;;;0.93;0.93;;;18.80;99.90;;;;;;5031479;28;20430;-68
2021/10/03 01:33:45;;;;;;;0.70;0.50;;;18.80;99.90;;;;;;5033929;28;20468;-69
2021/10/03 01:36:10;;;;;;;0.70;0.60;;;18.80;99.90;;;;;;5033623;28;20422;-70
2021/10/03 01:38:37;;;;;;;0.70;0.60;;;18.80;99.90;;;;;;5032492;28;20168;-69
2021/10/03 01:41:03;;;;;;;0.70;0.60;;;18.80;99.90;;;;;;5034018;28;20175;-69
2021/10/03 01:43:28;;;;;;;0.90;0.70;;;18.80;99.90;;;;;;5033557;28;20523;-70
2021/10/03 01:45:55;;;;;;;0.80;0.70;;;18.70;99.90;;;;;;5032072;28;20175;-68
2021/10/03 01:48:23;;;;;;;0.77;0.60;;;18.70;99.90;;;;;;5033072;28;20202;-69
2021/10/03 01:50:58;;;;;;;0.87;0.87;;;18.60;99.90;;;;;;5034249;28;20997;-69
2021/10/03 01:53:30;;;;;;;0.87;0.70;;;18.60;99.90;;;;;;5032896;28;20461;-69
2021/10/03 01:55:57;;;;;;;0.70;0.50;;;18.60;99.90;;;;;;5026251;28;20823;-69
2021/10/03 01:58:26;;;;;;;0.90;0.70;;;18.60;99.90;;;;;;5027316;28;20974;-69
2021/10/03 02:00:56;;;;;;;4.57;2.13;;;18.50;99.90;;;;;;5032129;28;20483;-70
2021/10/03 02:03:22;;;;;;;0.70;0.50;;;18.40;99.90;;;;;;5033245;28;20848;-70
2021/10/03 02:05:48;;;;;;;1.10;0.70;;;18.40;99.90;;;;;;5033677;28;20394;-68
2021/10/03 02:08:14;;;;;;;0.70;0.50;;;18.40;99.90;;;;;;5031158;28;20184;-69
2021/10/03 02:10:43;;;;;;;0.70;0.50;;;18.40;99.90;;;;;;5033927;28;20178;-69
2021/10/03 02:13:10;;;;;;;0.70;0.50;;;18.30;99.90;;;;;;5027962;28;20461;-67
2021/10/03 02:15:37;;;;;;;1.10;0.70;;;18.30;99.90;;;;;;5033574;28;20402;-69
2021/10/03 02:18:07;;;;;;;0.70;0.60;;;18.20;99.90;;;;;;5033254;28;20837;-68
2021/10/03 02:20:34;;;;;;;0.70;0.50;;;18.20;99.90;;;;;;5014992;28;20514;-68
2021/10/03 02:23:01;;;;;;;1.37;0.70;;;18.10;99.90;;;;;;5026843;28;20575;-68
2021/10/03 02:25:26;;;;;;;1.87;0.97;;;18.10;99.90;;;;;;5031631;28;20445;-68
2021/10/03 02:27:52;;;;;;;0.70;0.60;;;18.10;99.90;;;;;;5033512;28;20966;-68
2021/10/03 02:30:18;;;;;;;1.17;0.67;;;18.00;99.90;;;;;;5031897;28;20577;-71
2021/10/03 02:32:43;;;;;;;0.70;0.60;;;18.00;99.90;;;;;;5022010;28;20212;-68
2021/10/03 02:35:11;;;;;;;0.90;0.80;;;18.00;99.90;;;;;;5026807;28;20178;-69
2021/10/03 02:37:38;;;;;;;0.70;0.50;;;18.00;99.90;;;;;;5020132;28;20604;-69
2021/10/03 02:40:06;;;;;;;0.70;0.50;;;18.00;99.90;;;;;;5018696;28;20434;-68
2021/10/03 02:42:32;;;;;;;0.70;0.60;;;17.90;99.90;;;;;;5020934;28;20530;-69
2021/10/03 02:44:58;;;;;;;0.70;0.60;;;17.90;99.90;;;;;;5013469;28;20498;-68
2021/10/03 02:47:23;;;;;;;1.27;0.87;;;18.00;99.90;;;;;;5017149;28;20167;-69
2021/10/03 02:49:49;;;;;;;0.80;0.50;;;18.00;99.90;;;;;;5031345;28;20691;-69
2021/10/03 02:52:15;;;;;;;0.80;0.70;;;18.00;99.90;;;;;;5031685;28;20218;-68
2021/10/03 02:54:41;;;;;;;0.70;0.60;;;17.90;99.90;;;;;;5032972;28;20223;-68
2021/10/03 02:57:08;;;;;;;0.70;0.50;;;17.90;99.90;;;;;;5031424;28;20481;-69
2021/10/03 02:59:35;;;;;;;0.80;0.50;;;18.00;99.90;;;;;;5031842;28;20464;-68
2021/10/03 03:02:00;;;;;;;0.90;0.63;;;18.00;99.90;;;;;;5031274;28;20434;-69
2021/10/03 03:04:26;;;;;;;0.70;0.50;;;18.00;99.90;;;;;;5032816;28;20513;-71
2021/10/03 03:06:51;;;;;;;1.57;0.83;;;18.00;99.90;;;;;;5031305;28;20236;-68
2021/10/03 03:09:17;;;;;;;0.80;0.70;;;18.10;99.90;;;;;;5030673;28;20535;-68
2021/10/03 03:11:43;;;;;;;0.70;0.60;;;18.10;99.90;;;;;;5026438;28;20181;-68
2021/10/03 03:14:09;;;;;;;0.90;0.70;;;18.10;99.90;;;;;;5026140;28;20775;-69
2021/10/03 03:16:42;;;;;;;0.80;0.73;;;18.10;99.90;;;;;;5012709;28;20764;-68
2021/10/03 03:19:07;;;;;;;0.70;0.60;;;18.20;99.90;;;;;;5029093;28;20520;-69
2021/10/03 03:21:33;;;;;;;0.70;0.57;;;18.10;99.90;;;;;;5031889;28;20551;-69
2021/10/03 03:23:59;;;;;;;1.20;0.80;;;18.20;99.90;;;;;;5023122;28;20238;-69
2021/10/03 03:26:24;;;;;;;0.90;0.80;;;18.20;99.90;;;;;;5032212;28;20184;-69
2021/10/03 03:28:50;;;;;;;1.10;1.00;;;18.20;99.90;;;;;;5030594;28;20176;-68
2021/10/03 03:31:16;;;;;;;0.70;0.50;;;18.20;99.90;;;;;;5030697;28;20206;-68
2021/10/03 03:33:41;;;;;;;1.00;0.80;;;18.30;99.90;;;;;;5031597;28;20684;-68
2021/10/03 03:36:07;;;;;;;1.17;0.93;;;18.40;99.90;;;;;;5032081;28;20641;-68
2021/10/03 03:38:36;;;;;;;2.07;1.20;;;18.40;99.90;;;;;;5019679;28;20327;-69
2021/10/03 03:41:05;;;;;;;0.80;0.60;;;18.40;99.90;;;;;;5032341;28;20163;-68
2021/10/03 03:43:31;;;;;;;0.80;0.70;;;18.50;99.90;;;;;;5029035;28;20512;-69
2021/10/03 03:45:56;;;;;;;0.93;0.77;;;18.50;99.90;;;;;;5014970;28;20442;-69
2021/10/03 03:48:22;;;;;;;1.07;0.90;;;18.60;99.90;;;;;;5030364;28;20438;-68
2021/10/03 03:50:48;;;;;;;2.03;1.83;;;18.60;99.90;;;;;;5030984;28;20265;-69
2021/10/03 03:53:13;;;;;;;1.87;0.90;;;18.70;99.90;;;;;;5032015;28;20187;-68
2021/10/03 03:55:39;;;;;;;1.10;0.90;;;18.70;99.90;;;;;;5029542;28;20180;-69
2021/10/03 03:58:04;;;;;;;0.70;0.50;;;18.70;99.90;;;;;;5028857;28;20190;-68
2021/10/03 04:00:30;;;;;;;1.50;1.40;;;18.70;99.90;;;;;;5027848;28;20590;-69
2021/10/03 04:02:56;;;;;;;2.10;1.93;;;18.80;99.90;;;;;;5031377;28;20305;-68
2021/10/03 04:05:21;;;;;;;0.80;0.70;;;18.80;99.90;;;;;;5030236;28;20175;-69
2021/10/03 04:07:47;;;;;;;2.10;1.10;;;18.80;99.90;;;;;;5028267;28;20194;-70
2021/10/03 04:10:12;;;;;;;2.80;1.27;;;18.90;99.90;;;;;;5027578;28;20180;-69
2021/10/03 04:12:38;;;;;;;1.10;0.90;;;18.90;99.90;;;;;;5014378;28;20211;-70
2021/10/03 04:15:06;;;;;;;0.90;0.80;;;18.90;99.90;;;;;;5031637;28;20258;-69
2021/10/03 04:17:32;;;;;;;0.70;0.60;;;18.90;99.90;;;;;;5031324;28;20221;-69
2021/10/03 04:19:57;;;;;;;1.07;0.97;;;18.90;99.90;;;;;;5029280;28;20959;-69
2021/10/03 04:22:23;;;;;;;3.37;0.90;;;19.00;99.90;;;;;;5030947;28;20202;-69
2021/10/03 04:24:49;;;;;;;1.17;0.70;;;19.00;99.90;;;;;;5030421;28;20637;-69
2021/10/03 04:27:15;;;;;;;2.87;1.00;;;19.10;99.90;;;;;;5031268;28;20183;-69
2021/10/03 04:29:42;;;;;;;0.90;0.70;;;19.10;99.90;;;;;;5022136;28;20449;-69
2021/10/03 04:32:07;;;;;;;0.80;0.70;;;19.10;99.90;;;;;;5023124;28;20860;-69
2021/10/03 04:34:33;;;;;;;0.70;0.60;;;19.10;99.90;;;;;;5031587;28;20482;-69
2021/10/03 04:36:59;;;;;;;0.90;0.77;;;19.10;99.90;;;;;;5030900;28;20629;-69
2021/10/03 04:39:26;;;;;;;0.70;0.50;;;19.10;99.90;;;;;;5028965;28;20179;-69
2021/10/03 04:41:52;;;;;;;2.23;1.93;;;19.10;99.90;;;;;;5031779;28;20410;-68
2021/10/03 04:44:18;;;;;;;2.03;1.90;;;19.20;99.90;;;;;;5029993;28;20449;-69
2021/10/03 04:46:44;;;;;;;1.23;1.00;;;19.20;99.90;;;;;;5031349;28;20410;-68
2021/10/03 04:49:09;;;;;;;2.50;1.00;;;19.20;99.90;;;;;;5030337;28;20183;-69
2021/10/03 04:51:35;;;;;;;0.73;0.57;;;19.30;99.90;;;;;;5031473;28;20176;-68
2021/10/03 04:54:01;;;;;;;1.00;0.80;;;19.30;99.90;;;;;;5030899;28;20214;-68
2021/10/03 04:56:28;;;;;;;7.60;1.93;;;19.30;99.90;;;;;;5030457;28;20183;-69
2021/10/03 04:58:54;;;;;;;0.83;0.77;;;19.30;99.90;;;;;;5030533;28;20190;-69
2021/10/03 05:01:20;;;;;;;0.80;0.70;;;19.30;99.90;;;;;;5027566;28;20484;-68
2021/10/03 05:03:45;;;;;;;0.80;0.77;;;19.30;99.90;;;;;;5026353;28;20454;-68
2021/10/03 05:06:11;;;;;;;1.40;1.30;;;19.30;99.90;;;;;;5030512;28;20168;-68
2021/10/03 05:08:37;;;;;;;1.60;1.10;;;19.30;99.90;;;;;;5030561;28;20219;-68
2021/10/03 05:11:03;;;;;;;0.80;0.80;;;19.40;99.90;;;;;;5029665;28;20183;-68
2021/10/03 05:13:29;;;;;;;1.80;1.10;;;19.40;99.90;;;;;;5013532;28;20996;-68
2021/10/03 05:15:56;;;;;;;1.20;1.10;;;19.40;99.90;;;;;;5014926;28;20441;-69
2021/10/03 05:18:22;;;;;;;1.03;0.93;;;19.40;99.90;;;;;;5031295;28;20429;-69
2021/10/03 05:20:48;;;;;;;1.47;1.00;;;19.40;99.90;;;;;;5033690;28;20522;-68
2021/10/03 05:23:14;;;;;;;3.77;1.03;;;19.40;99.90;;;;;;5034626;28;20458;-68
2021/10/03 05:25:39;;;;;;;0.90;0.83;;;19.40;99.90;;;;;;5033775;28;20633;-68
2021/10/03 05:28:05;;;;;;;0.80;0.70;;;19.40;99.90;;;;;;5023505;28;20434;-69
2021/10/03 05:30:31;;;;;;;1.00;0.80;;;19.40;99.90;;;;;;5032866;28;20548;-68
2021/10/03 05:32:57;;;;;;;1.00;0.67;;;19.50;99.90;;;;;;5033378;28;20274;-70
2021/10/03 05:35:22;;;;;;;1.47;1.30;;;19.40;99.90;;;;;;5033486;28;20976;-70
2021/10/03 05:37:48;;;;;;;1.57;1.07;;;19.40;99.90;;;;;;5032795;28;20182;-68
2021/10/03 05:40:15;;;;;;;1.27;1.17;;;19.50;99.90;;;;;;5020347;28;20196;-68
2021/10/03 05:42:41;;;;;;;1.40;1.30;;;19.50;99.90;;;;;;5014401;28;20455;-68
2021/10/03 05:45:07;;;;;;;1.60;1.50;;;19.50;99.90;;;;;;5014504;28;20912;-68
2021/10/03 05:47:33;;;;;;;1.10;1.00;;;19.50;99.90;;;;;;5014628;28;20408;-68
2021/10/03 05:49:58;;;;;;;1.23;1.13;;;19.50;99.90;;;;;;5014484;28;20460;-69
2021/10/03 05:52:24;;;;;;;2.10;1.57;;;19.60;99.90;;;;;;5018006;28;20191;-69
2021/10/03 05:54:50;;;;;;;0.97;0.87;;;19.60;99.90;;;;;;5030387;28;20599;-68
2021/10/03 05:57:16;;;;;;;0.83;0.60;;;19.60;99.90;;;;;;5032929;28;20472;-68
2021/10/03 05:59:42;;;;;;;1.57;1.20;;;19.60;99.90;;;;;;5032786;28;20199;-68
2021/10/03 06:02:07;;;;;;;1.77;1.27;;;19.60;99.90;;;;;;5030127;28;20465;-68
2021/10/03 06:04:33;;;;;;;0.80;0.60;;;19.60;99.90;;;;;;5033605;28;20183;-69
2021/10/03 06:06:58;;;;;;;1.17;1.07;;;19.60;99.90;;;;;;5031700;28;20183;-70
2021/10/03 06:09:24;;;;;;;2.40;1.47;;;19.60;99.90;;;;;;5033953;28;20164;-69
2021/10/03 06:11:50;;;;;;;3.33;1.23;;;19.60;99.90;;;;;;5033928;28;20186;-68
2021/10/03 06:14:15;;;;;;;0.73;0.60;;;19.70;99.90;;;;;;5033120;28;20262;-69
2021/10/03 06:16:42;;;;;;;0.90;0.80;;;19.70;99.90;;;;;;5032349;28;20187;-68
2021/10/03 06:19:11;;;;;;;2.50;0.60;;;19.70;99.90;;;;;;5031574;28;20531;-69
2021/10/03 06:21:39;;;;;;;0.90;0.90;;;19.70;99.90;;;;;;5021765;28;20428;-70
2021/10/03 06:24:06;;;;;;;0.80;0.80;;;19.70;99.90;;;;;;5030691;28;20453;-68
2021/10/03 06:26:31;;;;;;;0.90;0.73;;;19.70;99.90;;;;;;5030370;28;21170;-68
2021/10/03 06:28:57;;;;;;;1.63;0.83;;;19.70;99.90;;;;;;5020590;28;20435;-68
2021/10/03 06:31:22;;;;;;;2.00;1.43;;;19.70;99.90;;;;;;5014646;28;20172;-68
2021/10/03 06:33:48;;;;;;;1.07;1.00;;;19.70;99.90;;;;;;5032719;28;20245;-68
2021/10/03 06:36:13;;;;;;;0.80;0.60;;;19.70;99.90;;;;;;5029313;28;20199;-69
2021/10/03 06:38:39;;;;;;;0.87;0.77;;;19.70;99.90;;;;;;5028352;28;20734;-69
2021/10/03 06:41:05;;;;;;;0.93;0.83;;;19.80;99.90;;;;;;5032233;28;20262;-68
2021/10/03 06:43:35;;;;;;;1.40;0.70;;;19.80;99.90;;;;;;5032724;28;20238;-68
2021/10/03 06:46:02;;;;;;;1.00;0.90;;;19.80;99.90;;;;;;5033024;28;20514;-68
2021/10/03 06:48:28;;;;;;;0.90;0.70;;;19.80;99.90;;;;;;5031341;28;20520;-68
2021/10/03 06:50:54;;;;;;;1.50;0.80;;;19.80;99.90;;;;;;5025082;28;20459;-68
2021/10/03 06:53:19;;;;;;;1.10;0.80;;;19.80;99.90;;;;;;5028317;28;20510;-69
2021/10/03 06:55:45;;;;;;;1.60;1.00;;;19.80;99.90;;;;;;5032887;28;20250;-69
2021/10/03 06:58:10;;;;;;;1.23;1.00;;;19.90;99.90;;;;;;5030795;28;20192;-70
2021/10/03 07:00:36;;;;;;;2.17;0.90;;;19.80;99.90;;;;;;5032598;28;20199;-68
2021/10/03 07:03:01;;;;;;;0.97;0.70;;;19.90;99.90;;;;;;5031054;28;20199;-68
2021/10/03 07:05:27;;;;;;;1.20;1.10;;;19.90;99.90;;;;;;5030488;28;20179;-69
2021/10/03 07:07:53;;;;;;;2.67;1.20;;;19.90;99.90;;;;;;5030956;28;20216;-69
2021/10/03 07:10:18;;;;;;;0.90;0.70;;;19.90;99.90;;;;;;5032815;28;20179;-69
2021/10/03 07:12:44;;;;;;;1.23;1.13;;;19.80;99.90;;;;;;5030691;28;20227;-68
2021/10/03 07:15:10;;;;;;;1.37;0.83;;;19.80;99.90;;;;;;5032434;28;20242;-69
2021/10/03 07:17:35;;;;;;;1.83;0.60;;;19.70;99.90;;;;;;5023071;28;20176;-69
2021/10/03 07:20:01;;;;;;;0.93;0.90;;;19.70;99.90;;;;;;5024536;28;20254;-68
2021/10/03 07:22:27;;;;;;;2.10;1.20;;;19.70;99.90;;;;;;5012880;28;20705;-69
2021/10/03 07:24:52;;;;;;;0.80;0.60;;;19.60;99.90;;;;;;5011383;28;20407;-69
2021/10/03 07:27:18;;;;;;;0.83;0.60;;;19.60;99.90;;;;;;5017571;28;20275;-69
2021/10/03 07:29:43;;;;;;;1.10;0.70;;;19.50;99.90;;;;;;5016216;28;20601;-68
2021/10/03 07:32:09;;;;;;;1.00;0.87;;;19.50;99.90;;;;;;5031252;28;20194;-68
2021/10/03 07:34:35;;;;;;;1.03;0.90;;;19.50;99.90;;;;;;5032271;28;20720;-68
2021/10/03 07:37:01;;;;;;;1.00;0.93;;;19.40;99.90;;;;;;5026360;28;20212;-68
2021/10/03 07:39:27;;;;;;;0.80;0.70;;;19.40;99.90;;;;;;5011581;28;20408;-68
2021/10/03 07:41:52;;;;;;;0.70;0.60;;;19.40;99.90;;;;;;5031738;28;20199;-69
2021/10/03 07:44:18;;;;;;;2.27;1.97;;;19.40;99.90;;;;;;5032150;28;20462;-70
2021/10/03 07:46:45;;;;;;;1.47;1.03;;;19.30;99.90;;;;;;5028625;28;20241;-68
2021/10/03 07:49:11;;;;;;;1.43;1.00;;;19.40;99.90;;;;;;5031735;28;20477;-68
2021/10/03 07:51:37;;;;;;;2.30;0.80;;;19.30;99.90;;;;;;5026667;28;20429;-69
2021/10/03 07:54:02;;;;;;;1.37;1.10;;;19.30;99.90;;;;;;5031998;28;20464;-68
2021/10/03 07:56:28;;;;;;;13.00;1.53;;;19.40;99.90;;;;;;5028945;28;20180;-69
2021/10/03 07:58:53;;;;;;;1.37;1.07;;;19.40;99.90;;;;;;5032071;28;20160;-69
2021/10/03 08:01:21;;;;;;;0.90;0.70;;;19.40;99.90;;;;;;5030934;28;20180;-68
2021/10/03 08:03:46;;;;;;;3.83;1.70;;;19.40;99.90;;;;;;5029329;28;20194;-69
2021/10/03 08:06:12;;;;;;;2.90;1.20;;;19.30;99.90;;;;;;5022664;28;20430;-69
2021/10/03 08:08:38;;;;;;;1.20;1.00;;;19.30;99.90;;;;;;5030790;28;20187;-69
2021/10/03 08:11:04;;;;;;;1.37;0.83;;;19.20;99.90;;;;;;5031264;28;20217;-68
2021/10/03 08:13:29;;;;;;;0.80;0.73;;;19.20;99.90;;;;;;5031810;28;20226;-68
2021/10/03 08:15:55;;;;;;;1.47;1.00;;;19.20;99.90;;;;;;5025497;28;20181;-69
2021/10/03 08:18:21;;;;;;;1.60;0.80;;;19.20;99.90;;;;;;5030644;28;20592;-69
2021/10/03 08:20:47;;;;;;;0.80;0.80;;;19.10;99.90;;;;;;5024934;28;20180;-69
2021/10/03 08:23:13;;;;;;;0.97;0.87;;;19.10;99.90;;;;;;5019522;28;20680;-68
2021/10/03 08:25:39;;;;;;;1.10;1.00;;;19.10;99.90;;;;;;5011588;28;20403;-66
2021/10/03 08:28:05;;;;;;;1.10;0.90;;;19.10;99.90;;;;;;5027340;28;20438;-68
2021/10/03 08:30:31;;;;;;;2.90;2.50;;;19.10;99.90;;;;;;5019400;28;20176;-69
2021/10/03 08:32:56;;;;;;;0.80;0.80;;;19.00;99.90;;;;;;5030961;28;20283;-69
2021/10/03 08:35:22;;;;;;;1.10;0.70;;;18.90;99.90;;;;;;5029865;28;20505;-67
2021/10/03 08:37:48;;;;;;;1.43;1.33;;;18.90;99.90;;;;;;5012821;28;20180;-67
2021/10/03 08:40:14;;;;;;;1.23;1.13;;;18.90;99.90;;;;;;5023905;28;20167;-69
2021/10/03 08:42:40;;;;;;;1.13;0.83;;;18.90;99.90;;;;;;5030911;28;20222;-68
2021/10/03 08:45:07;;;;;;;1.20;0.83;;;18.90;99.90;;;;;;5031389;28;20406;-68
2021/10/03 08:47:33;;;;;;;0.80;0.70;;;18.90;99.90;;;;;;5031065;28;20429;-67
2021/10/03 08:50:00;;;;;;;1.57;1.47;;;18.90;99.90;;;;;;5033059;28;22329;-67
2021/10/03 08:52:26;;;;;;;5.23;1.60;;;19.00;99.90;;;;;;5034323;28;20966;-68
2021/10/03 08:54:52;;;;;;;0.90;0.70;;;19.00;99.90;;;;;;5035160;28;20533;-67
2021/10/03 08:57:18;;;;;;;0.70;0.50;;;19.00;99.90;;;;;;5034560;28;20434;-67
2021/10/03 09:00:02;;;;;;;1.23;1.13;;;19.00;99.90;;;;;;5034639;28;20398;-67
2021/10/03 09:02:28;;;;;;;1.00;0.90;;;19.00;99.90;;;;;;5032596;28;20545;-67
2021/10/03 09:04:58;;;;;;;0.90;0.87;;;19.00;99.90;;;;;;5034140;28;20477;-67
2021/10/03 09:07:24;;;;;;;0.70;0.50;;;19.00;99.90;;;;;;5019254;28;20176;-67
2021/10/03 09:09:49;;;;;;;2.40;2.30;;;19.10;99.90;;;;;;5033735;28;20986;-71
2021/10/03 09:12:37;;;;;;;1.20;1.10;;;19.10;99.90;;;;;;5032102;28;20540;-68
2021/10/03 09:15:12;;;;;;;2.67;1.77;;;19.10;99.90;;;;;;5034063;28;20296;-68
2021/10/03 09:17:38;;;;;;;1.40;1.07;;;19.10;99.90;;;;;;5034958;28;20463;-67
2021/10/03 09:20:19;;;;;;;0.80;0.73;;;19.20;99.90;;;;;;5033626;28;20464;-67
2021/10/03 09:22:58;;;;;;;1.23;0.83;;;19.20;99.90;;;;;;5034337;28;20445;-70
2021/10/03 09:25:51;;;;;;;0.70;0.50;;;19.20;99.90;;;;;;5031110;28;20412;-68
2021/10/03 09:28:20;;;;;;;1.47;1.37;;;19.20;99.90;;;;;;5025742;28;20458;-69
2021/10/03 09:30:52;;;;;;;0.77;0.70;;;19.20;99.90;;;;;;5032893;28;20461;-69
2021/10/03 09:33:17;;;;;;;0.80;0.60;;;19.30;99.90;;;;;;5026004;28;20461;-68
2021/10/03 09:35:58;;;;;;;2.20;1.47;;;19.30;99.90;;;;;;5029077;28;20962;-68
2021/10/03 09:38:25;;;;;;;1.03;0.90;;;19.40;99.90;;;;;;5032911;28;20171;-68
2021/10/03 09:41:05;;;;;;;1.10;1.00;;;19.40;99.90;;;;;;5033321;28;20429;-68
2021/10/03 09:43:59;;;;;;;1.20;1.10;;;19.40;99.90;;;;;;5033206;28;20454;-69
2021/10/03 09:46:38;;;;;;;1.57;1.03;;;19.40;99.90;;;;;;5017876;28;20442;-69
2021/10/03 09:49:15;;;;;;;3.20;2.00;;;19.50;99.90;;;;;;5031380;28;20480;-69
2021/10/03 09:51:45;;;;;;;0.97;0.73;;;19.50;99.90;;;;;;5034218;28;20997;-70
2021/10/03 09:54:11;;;;;;;1.17;0.70;;;19.50;99.90;;;;;;5033564;28;20473;-70
2021/10/03 09:56:37;;;;;;;0.77;0.67;;;19.50;99.90;;;;;;5031337;28;20444;-68
2021/10/03 09:59:05;;;;;;;2.00;0.80;;;19.60;99.90;;;;;;5032348;28;20422;-68
2021/10/03 10:01:32;;;;;;;0.87;0.80;;;19.60;99.90;;;;;;5031557;28;20269;-69
2021/10/03 10:03:57;;;;;;;1.10;0.80;;;19.60;99.90;;;;;;5033995;28;20783;-70
2021/10/03 10:06:23;;;;;;;0.83;0.83;;;19.60;99.90;;;;;;5033774;28;20399;-70
2021/10/03 10:08:53;;;;;;;0.80;0.80;;;19.60;99.90;;;;;;5032798;28;20172;-69
2021/10/03 10:11:42;;;;;;;4.80;1.10;;;19.70;99.90;;;;;;5032475;28;20183;-70
2021/10/03 10:14:09;;;;;;;1.20;0.77;;;19.60;99.90;;;;;;5033360;28;20878;-71
2021/10/03 10:16:42;;;;;;;1.33;1.00;;;19.70;99.90;;;;;;5033589;28;20402;-70
2021/10/03 10:19:30;;;;;;;1.30;1.10;;;19.70;99.90;;;;;;5015706;28;20513;-70
2021/10/03 10:22:18;;;;;;;1.00;0.90;;;19.70;99.90;;;;;;5020521;28;20426;-70
2021/10/03 10:24:46;;;;;;;0.80;0.80;;;19.70;99.90;;;;;;5033090;28;20410;-70
2021/10/03 10:27:21;;;;;;;0.70;0.57;;;19.70;99.90;;;;;;5014765;28;20997;-70
2021/10/03 10:29:51;;;;;;;0.70;0.60;;;19.70;99.90;;;;;;5025643;28;20496;-69
2021/10/03 10:32:17;;;;;;;1.30;0.80;;;19.70;99.90;;;;;;5013714;28;20423;-69
2021/10/03 10:35:16;;;;;;;0.80;0.70;;;19.70;99.90;;;;;;5015286;28;20481;-68
2021/10/03 10:37:50;;;;;;;1.00;0.80;;;19.70;99.90;;;;;;5032650;28;20468;-69
2021/10/03 10:40:25;;;;;;;1.30;1.20;;;19.80;99.90;;;;;;5033413;28;20394;-68
2021/10/03 10:43:04;;;;;;;1.73;1.63;;;19.70;99.90;;;;;;5033339;28;20422;-71
2021/10/03 10:45:33;;;;;;;0.70;0.57;;;19.80;99.90;;;;;;5025481;28;20418;-68
2021/10/03 10:48:08;;;;;;;1.83;1.73;;;19.70;99.90;;;;;;5023991;28;20497;-69
2021/10/03 10:50:54;;;;;;;1.10;0.93;;;19.80;99.90;;;;;;5020833;28;20440;-69
2021/10/03 10:53:25;;;;;;;0.80;0.60;;;19.70;99.90;;;;;;5029232;28;20553;-69
2021/10/03 10:56:15;;;;;;;1.83;0.70;;;19.70;99.90;;;;;;5029905;28;20911;-69
2021/10/03 10:58:53;;;;;;;0.70;0.50;;;19.80;99.90;;;;;;5033123;28;20395;-70
2021/10/03 11:01:37;;;;;;;1.57;1.47;;;19.80;99.90;;;;;;5030076;28;21014;-68
2021/10/03 11:04:09;;;;;;;0.70;0.60;;;19.80;99.90;;;;;;5022213;28;20468;-68
2021/10/03 11:06:35;;;;;;;1.00;0.90;;;19.90;99.90;;;;;;5020762;28;20415;-68
2021/10/03 11:09:04;;;;;;;1.63;1.27;;;19.90;99.90;;;;;;5026436;28;20816;-70
2021/10/03 11:11:32;;;;;;;4.00;1.53;;;19.90;99.90;;;;;;5031401;28;20934;-69
2021/10/03 11:13:59;;;;;;;1.00;0.70;;;19.90;99.90;;;;;;5032592;28;20872;-68
2021/10/03 11:16:34;;;;;;;0.90;0.60;;;19.90;99.90;;;;;;5032463;28;20402;-71
2021/10/03 11:19:06;;;;;;;1.60;0.97;;;19.90;99.90;;;;;;5031023;28;20479;-69
2021/10/03 11:21:38;;;;;;;1.13;1.03;;;19.90;99.90;;;;;;5032630;28;20410;-68
2021/10/03 11:24:09;;;;;;;1.63;1.13;;;19.90;99.90;;;;;;5030154;28;20450;-71
2021/10/03 11:26:47;;;;;;;1.00;0.83;;;20.00;99.90;;;;;;5021089;28;20436;-68
2021/10/03 11:29:13;;;;;;;2.00;1.70;;;20.00;99.90;;;;;;5020875;28;20430;-69
2021/10/03 11:31:48;;;;;;;1.63;1.33;;;20.10;99.90;;;;;;5020318;28;20419;-70
2021/10/03 11:34:35;;;;;;;1.20;1.10;;;20.10;99.90;;;;;;5031978;28;20465;-69
2021/10/03 11:37:05;;;;;;;1.23;1.13;;;20.20;99.90;;;;;;5012698;28;20429;-69
2021/10/03 11:39:46;;;;;;;1.00;0.77;;;20.30;99.90;;;;;;5020922;28;20814;-68
2021/10/03 11:42:28;;;;;;;1.57;0.73;;;20.30;99.90;;;;;;5030657;28;20413;-69
2021/10/03 11:45:06;;;;;;;0.80;0.60;;;20.40;99.90;;;;;;5021792;28;20924;-68
2021/10/03 11:47:53;;;;;;;1.37;0.93;;;20.40;99.90;;;;;;5030915;28;20426;-68
2021/10/03 11:50:23;;;;;;;2.20;0.90;;;20.40;99.90;;;;;;5032096;28;20425;-68
2021/10/03 11:52:50;;;;;;;1.17;1.07;;;20.40;99.90;;;;;;5030161;28;20446;-69
2021/10/03 11:55:18;;;;;;;0.70;0.60;;;20.40;99.90;;;;;;5031415;28;20473;-69
2021/10/03 11:57:48;;;;;;;2.60;1.17;;;20.40;99.90;;;;;;5031852;28;20434;-70
2021/10/03 12:00:19;;;;;;;1.00;0.80;;;20.40;99.90;;;;;;5013696;28;20929;-70
2021/10/03 12:02:46;;;;;;;1.60;1.20;;;20.50;99.90;;;;;;5030359;28;20493;-72
2021/10/03 12:05:20;;;;;;;0.80;0.60;;;20.50;99.90;;;;;;5031095;28;20418;-70
2021/10/03 12:07:46;;;;;;;1.10;0.87;;;20.50;99.90;;;;;;5029855;28;20422;-70
2021/10/03 12:10:14;;;;;;;1.03;0.93;;;20.50;99.90;;;;;;5012152;28;20809;-70
2021/10/03 12:12:44;;;;;;;1.40;0.93;;;20.50;99.90;;;;;;5013201;28;20438;-69
2021/10/03 12:15:34;;;;;;;1.23;1.13;;;20.60;99.90;;;;;;5011824;28;20497;-70
2021/10/03 12:18:00;;;;;;;1.27;1.13;;;20.60;99.90;;;;;;5014567;28;20423;-69
2021/10/03 12:20:45;;;;;;;1.30;0.90;;;20.60;99.90;;;;;;5019765;28;20514;-69
2021/10/03 12:23:10;;;;;;;1.17;1.00;;;20.70;99.90;;;;;;5054271;28;20324;-69
2021/10/03 12:25:40;;;;;;;1.30;1.20;;;20.70;99.90;;;;;;5038502;28;20512;-68
2021/10/03 12:28:05;;;;;;;1.63;1.27;;;20.70;99.90;;;;;;5035921;28;20163;-68
2021/10/03 12:30:52;;;;;;;2.20;1.17;;;20.60;99.90;;;;;;5032244;28;20422;-69
2021/10/03 12:33:18;;;;;;;1.00;0.77;;;20.70;99.90;;;;;;5035528;28;20195;-68
2021/10/03 12:36:03;;;;;;;0.83;0.67;;;20.60;99.90;;;;;;5035062;28;20779;-69
2021/10/03 12:38:30;;;;;;;1.23;0.97;;;20.60;99.90;;;;;;5035648;28;20410;-70
2021/10/03 12:40:56;;;;;;;0.80;0.60;;;20.60;99.90;;;;;;5033676;28;20779;-71
2021/10/03 12:43:23;;;;;;;2.30;2.10;;;20.70;99.90;;;;;;5035484;28;20927;-68
2021/10/03 12:45:49;;;;;;;0.80;0.80;;;20.70;99.90;;;;;;5032238;28;20935;-69
2021/10/03 12:48:16;;;;;;;0.80;0.70;;;20.70;99.90;;;;;;5040262;28;20913;-68
2021/10/03 12:50:42;;;;;;;1.03;0.77;;;20.70;99.90;;;;;;5035385;28;20406;-68
2021/10/03 12:53:08;;;;;;;1.17;1.07;;;20.70;99.90;;;;;;5032759;28;20876;-69